createdAt,value
2023-03-16T00:01:02.532Z,523.00
2023-03-16T00:05:02.301Z,522.00
2023-03-16T00:09:02.468Z,521.00
2023-03-16T00:13:02.648Z,527.00
2023-03-16T00:17:02.826Z,519.00
2023-03-16T00:21:03.006Z,524.00
2023-03-16T00:25:03.162Z,520.00
2023-03-16T00:29:03.347Z,524.00
2023-03-16T00:33:03.563Z,525.00
2023-03-16T00:37:03.679Z,522.00
2023-03-16T00:41:03.872Z,523.00
2023-03-16T00:45:04.081Z,525.00
2023-03-16T00:49:04.287Z,527.00
2023-03-16T00:53:04.462Z,522.00
2023-03-16T00:57:04.589Z,525.00
2023-03-16T01:01:04.842Z,526.00
2023-03-16T01:05:05.032Z,523.00
2023-03-16T01:09:05.281Z,526.00
2023-03-16T01:13:05.455Z,526.00
2023-03-16T01:17:05.675Z,530.00
2023-03-16T01:21:06.034Z,530.00
2023-03-16T01:25:06.135Z,529.00
2023-03-16T01:29:06.296Z,525.00
2023-03-16T01:33:06.709Z,530.00
2023-03-16T01:37:06.829Z,521.00
2023-03-16T01:41:06.932Z,528.00
2023-03-16T01:45:07.214Z,528.00
2023-03-16T01:49:08.524Z,527.00
2023-03-16T01:53:07.628Z,529.00
2023-03-16T01:57:07.823Z,530.00
2023-03-16T02:01:08.100Z,534.00
2023-03-16T02:05:08.272Z,533.00
2023-03-16T02:09:08.993Z,527.00
2023-03-16T02:13:08.738Z,528.00
2023-03-16T02:17:09.037Z,531.00
2023-03-16T02:21:09.990Z,530.00
2023-03-16T02:25:09.083Z,531.00
2023-03-16T02:29:09.015Z,528.00
2023-03-16T02:33:08.920Z,530.00
2023-03-16T02:37:08.982Z,531.00
2023-03-16T02:41:08.859Z,534.00
2023-03-16T02:45:08.842Z,536.00
2023-03-16T02:49:09.019Z,539.00
2023-03-16T02:53:08.741Z,535.00
2023-03-16T02:57:08.697Z,537.00
2023-03-16T03:01:08.750Z,539.00
2023-03-16T03:05:08.970Z,532.00
2023-03-16T03:09:09.143Z,539.00
2023-03-16T03:13:09.364Z,537.00
2023-03-16T03:17:09.614Z,536.00
2023-03-16T03:21:09.814Z,539.00
2023-03-16T03:25:09.754Z,537.00
2023-03-16T03:29:09.835Z,544.00
2023-03-16T03:33:09.800Z,538.00
2023-03-16T03:37:09.676Z,535.00
2023-03-16T03:41:09.657Z,537.00
2023-03-16T03:45:09.517Z,539.00
2023-03-16T03:49:09.523Z,542.00
2023-03-16T03:53:09.456Z,547.00
2023-03-16T03:57:09.435Z,549.00
2023-03-16T04:01:09.558Z,555.00
2023-03-16T04:05:10.035Z,553.00
2023-03-16T04:09:09.315Z,553.00
2023-03-16T04:13:09.421Z,555.00
2023-03-16T04:17:09.490Z,553.00
2023-03-16T04:21:09.626Z,553.00
2023-03-16T04:25:11.420Z,552.00
2023-03-16T04:29:09.715Z,552.00
2023-03-16T04:33:09.839Z,548.00
2023-03-16T04:37:09.886Z,552.00
2023-03-16T04:41:09.881Z,552.00
2023-03-16T04:45:09.940Z,552.00
2023-03-16T04:49:10.009Z,554.00
2023-03-16T04:53:10.068Z,549.00
2023-03-16T04:57:10.026Z,549.00
2023-03-16T05:01:10.037Z,549.00
2023-03-16T05:05:10.047Z,549.00
2023-03-16T05:09:10.004Z,547.00
2023-03-16T05:13:09.959Z,549.00
2023-03-16T05:17:10.008Z,548.00
2023-03-16T05:21:09.951Z,548.00
2023-03-16T05:25:10.087Z,551.00
2023-03-16T05:29:10.072Z,554.00
2023-03-16T05:33:10.324Z,553.00
2023-03-16T05:37:10.163Z,546.00
2023-03-16T05:41:10.572Z,554.00
2023-03-16T05:45:10.070Z,545.00
2023-03-16T05:49:10.094Z,546.00
2023-03-16T05:53:10.584Z,560.00
2023-03-16T05:57:10.034Z,750.00
2023-03-16T06:01:09.954Z,1262.00
2023-03-16T06:05:09.948Z,1361.00
2023-03-16T06:09:09.897Z,1435.00
2023-03-16T06:13:09.973Z,1430.00
2023-03-16T06:17:09.835Z,1050.00
2023-03-16T06:21:09.803Z,709.00
2023-03-16T06:25:09.944Z,610.00
2023-03-16T06:29:10.379Z,604.00
2023-03-16T06:33:10.399Z,956.00
2023-03-16T06:37:10.392Z,1120.00
2023-03-16T06:41:10.379Z,605.00
2023-03-16T06:45:10.535Z,522.00
2023-03-16T06:49:11.636Z,504.00
2023-03-16T06:53:10.868Z,501.00
2023-03-16T06:57:10.860Z,505.00
2023-03-16T07:01:10.985Z,500.00
2023-03-16T07:05:11.015Z,504.00
2023-03-16T07:09:11.300Z,504.00
2023-03-16T07:13:12.277Z,505.00
2023-03-16T07:17:11.116Z,521.00
2023-03-16T07:21:11.185Z,533.00
2023-03-16T07:25:11.111Z,539.00
2023-03-16T07:29:11.015Z,556.00
2023-03-16T07:33:10.978Z,552.00
2023-03-16T07:37:11.131Z,603.00
2023-03-16T07:41:11.425Z,596.00
2023-03-16T07:45:11.439Z,603.00
2023-03-16T07:49:11.400Z,611.00
2023-03-16T07:53:11.556Z,602.00
2023-03-16T07:57:11.512Z,602.00
2023-03-16T08:01:11.651Z,608.00
2023-03-16T08:05:11.716Z,610.00
2023-03-16T08:09:11.681Z,605.00
2023-03-16T08:13:15.277Z,607.00
2023-03-16T08:17:11.687Z,612.00
2023-03-16T08:21:12.222Z,607.00
2023-03-16T08:25:11.406Z,607.00
2023-03-16T08:29:11.547Z,604.00
2023-03-16T08:33:11.516Z,581.00
2023-03-16T08:37:11.501Z,510.00
2023-03-16T08:41:16.251Z,505.00
2023-03-16T08:45:13.995Z,530.00
2023-03-16T08:49:11.241Z,542.00
2023-03-16T08:53:11.241Z,555.00
2023-03-16T08:57:12.174Z,560.00
2023-03-16T09:01:11.341Z,570.00
2023-03-16T09:05:11.192Z,572.00
2023-03-16T09:09:11.221Z,571.00
2023-03-16T09:13:11.050Z,569.00
2023-03-16T09:17:11.001Z,572.00
2023-03-16T09:21:10.928Z,566.00
2023-03-16T09:25:10.894Z,526.00
2023-03-16T09:29:10.972Z,517.00
2023-03-16T09:33:10.978Z,537.00
2023-03-16T09:37:10.880Z,542.00
2023-03-16T09:41:10.994Z,564.00
2023-03-16T09:45:11.117Z,602.00
2023-03-16T09:49:13.764Z,573.00
2023-03-16T09:53:10.908Z,593.00
2023-03-16T09:57:11.743Z,597.00
2023-03-16T10:01:10.927Z,601.00
2023-03-16T10:05:10.909Z,613.00
2023-03-16T10:09:10.769Z,626.00
2023-03-16T10:13:10.797Z,627.00
2023-03-16T10:17:10.707Z,629.00
2023-03-16T10:21:10.785Z,647.00
2023-03-16T10:25:10.579Z,664.00
2023-03-16T10:29:10.728Z,679.00
2023-03-16T10:33:10.645Z,663.00
2023-03-16T10:37:10.645Z,658.00
2023-03-16T10:41:10.721Z,662.00
2023-03-16T10:45:11.264Z,660.00
2023-03-16T10:49:10.913Z,680.00
2023-03-16T10:53:11.097Z,765.00
2023-03-16T10:57:11.478Z,824.00
2023-03-16T11:01:11.323Z,950.00
2023-03-16T11:05:12.573Z,1009.00
2023-03-16T11:09:11.461Z,960.00
2023-03-16T11:13:12.274Z,1000.00
2023-03-16T11:17:11.305Z,971.00
2023-03-16T11:21:11.305Z,964.00
2023-03-16T11:25:11.266Z,995.00
2023-03-16T11:29:11.750Z,963.00
2023-03-16T11:33:12.693Z,952.00
2023-03-16T11:37:11.177Z,976.00
2023-03-16T11:41:11.193Z,1125.00
2023-03-16T11:45:11.453Z,1149.00
2023-03-16T11:49:11.539Z,1118.00
2023-03-16T11:53:11.518Z,1120.00
2023-03-16T11:57:11.650Z,1066.00
2023-03-16T12:01:11.737Z,1051.00
2023-03-16T12:05:11.712Z,1051.00
2023-03-16T12:09:11.806Z,994.00
2023-03-16T12:13:11.870Z,1026.00
2023-03-16T12:17:12.236Z,998.00
2023-03-16T12:21:16.315Z,1000.00
2023-03-16T12:25:11.961Z,1016.00
2023-03-16T12:29:11.933Z,1031.00
2023-03-16T12:33:11.906Z,1037.00
2023-03-16T12:37:11.825Z,1029.00
2023-03-16T12:41:11.813Z,1049.00
2023-03-16T12:45:11.749Z,1035.00
2023-03-16T12:49:11.879Z,1043.00
2023-03-16T12:53:11.984Z,1029.00
2023-03-16T12:57:12.258Z,1042.00
2023-03-16T13:01:12.366Z,1030.00
2023-03-16T13:05:12.435Z,1009.00
2023-03-16T13:09:12.780Z,1015.00
2023-03-16T13:13:12.760Z,994.00
2023-03-16T13:17:13.033Z,999.00
2023-03-16T13:21:13.251Z,961.00
2023-03-16T13:25:13.386Z,982.00
2023-03-16T13:29:13.565Z,937.00
2023-03-16T13:33:13.758Z,928.00
2023-03-16T13:37:13.976Z,923.00
2023-03-16T13:41:14.196Z,885.00
2023-03-16T13:45:14.189Z,914.00
2023-03-16T13:49:14.249Z,865.00
2023-03-16T13:53:14.108Z,860.00
2023-03-16T13:57:14.022Z,857.00
2023-03-16T14:01:14.127Z,834.00
2023-03-16T14:05:13.971Z,843.00
2023-03-16T14:09:13.961Z,835.00
2023-03-16T14:13:13.889Z,833.00
2023-03-16T14:17:13.851Z,821.00
2023-03-16T14:21:13.875Z,803.00
2023-03-16T14:25:13.851Z,783.00
2023-03-16T14:29:13.799Z,789.00
2023-03-16T14:33:13.777Z,787.00
2023-03-16T14:37:13.740Z,763.00
2023-03-16T14:41:13.739Z,756.00
2023-03-16T14:45:13.659Z,775.00
2023-03-16T14:49:13.622Z,780.00
2023-03-16T14:53:13.597Z,759.00
2023-03-16T14:57:13.569Z,825.00
2023-03-16T15:01:13.599Z,812.00
2023-03-16T15:05:13.547Z,827.00
2023-03-16T15:09:13.505Z,829.00
2023-03-16T15:13:13.806Z,814.00
2023-03-16T15:17:13.537Z,808.00
2023-03-16T15:21:13.527Z,804.00
2023-03-16T15:25:13.494Z,815.00
2023-03-16T15:29:13.504Z,834.00
2023-03-16T15:33:13.480Z,864.00
2023-03-16T15:37:14.320Z,958.00
2023-03-16T15:41:13.472Z,804.00
2023-03-16T15:45:13.481Z,813.00
2023-03-16T15:49:13.421Z,896.00
2023-03-16T15:53:29.209Z,901.00
2023-03-16T15:57:14.697Z,865.00
2023-03-16T16:01:13.691Z,887.00
2023-03-16T16:05:14.463Z,891.00
2023-03-16T16:09:13.639Z,872.00
2023-03-16T16:13:13.556Z,865.00
2023-03-16T16:17:13.541Z,887.00
2023-03-16T16:21:13.534Z,885.00
2023-03-16T16:25:13.506Z,870.00
2023-03-16T16:29:14.357Z,874.00
2023-03-16T16:33:13.535Z,872.00
2023-03-16T16:37:13.486Z,860.00
2023-03-16T16:41:13.564Z,853.00
2023-03-16T16:45:13.574Z,846.00
2023-03-16T16:49:13.486Z,838.00
2023-03-16T16:53:13.481Z,841.00
2023-03-16T16:57:13.563Z,817.00
2023-03-16T17:01:13.538Z,812.00
2023-03-16T17:05:13.524Z,798.00
2023-03-16T17:09:13.594Z,782.00
2023-03-16T17:13:13.607Z,788.00
2023-03-16T17:17:13.755Z,774.00
2023-03-16T17:21:13.714Z,784.00
2023-03-16T17:25:13.692Z,778.00
2023-03-16T17:29:13.762Z,777.00
2023-03-16T17:33:13.836Z,739.00
2023-03-16T17:37:13.895Z,765.00
2023-03-16T17:41:13.979Z,742.00
2023-03-16T17:45:14.054Z,755.00
2023-03-16T17:49:14.190Z,756.00
2023-03-16T17:53:14.216Z,747.00
2023-03-16T17:57:14.343Z,750.00
2023-03-16T18:01:14.454Z,746.00
2023-03-16T18:05:14.531Z,722.00
2023-03-16T18:09:14.624Z,718.00
2023-03-16T18:13:14.739Z,702.00
2023-03-16T18:17:14.867Z,705.00
2023-03-16T18:21:14.992Z,715.00
2023-03-16T18:25:15.103Z,712.00
2023-03-16T18:29:15.238Z,720.00
2023-03-16T18:33:15.366Z,716.00
2023-03-16T18:37:15.497Z,720.00
2023-03-16T18:41:15.675Z,707.00
2023-03-16T18:45:15.796Z,699.00
2023-03-16T18:49:15.919Z,707.00
2023-03-16T18:53:16.085Z,700.00
2023-03-16T18:57:16.186Z,688.00
2023-03-16T19:01:16.350Z,697.00
2023-03-16T19:05:16.481Z,685.00
2023-03-16T19:09:16.602Z,694.00
2023-03-16T19:13:16.730Z,692.00
2023-03-16T19:17:16.891Z,668.00
2023-03-16T19:21:17.080Z,678.00
2023-03-16T19:25:17.305Z,685.00
2023-03-16T19:29:17.477Z,669.00
2023-03-16T19:33:17.555Z,673.00
2023-03-16T19:37:17.740Z,667.00
2023-03-16T19:41:17.914Z,662.00
2023-03-16T19:45:18.099Z,661.00
2023-03-16T19:49:18.262Z,662.00
2023-03-16T19:53:18.459Z,657.00
2023-03-16T19:57:18.678Z,658.00
2023-03-16T20:01:18.889Z,657.00
2023-03-16T20:05:19.036Z,656.00
2023-03-16T20:09:19.268Z,650.00
2023-03-16T20:13:19.437Z,651.00
2023-03-16T20:17:19.639Z,649.00
2023-03-16T20:21:19.835Z,655.00
2023-03-16T20:25:20.050Z,644.00
2023-03-16T20:29:20.293Z,644.00
2023-03-16T20:33:20.512Z,641.00
2023-03-16T20:37:20.686Z,643.00
2023-03-16T20:41:20.977Z,646.00
2023-03-16T20:45:21.160Z,640.00
2023-03-16T20:49:21.380Z,636.00
2023-03-16T20:53:21.597Z,641.00
2023-03-16T20:57:21.771Z,638.00
2023-03-16T21:01:21.814Z,635.00
2023-03-16T21:05:21.718Z,627.00
2023-03-16T21:09:21.688Z,630.00
2023-03-16T21:13:21.662Z,631.00
2023-03-16T21:17:22.606Z,625.00
2023-03-16T21:21:21.612Z,623.00
2023-03-16T21:25:21.587Z,624.00
2023-03-16T21:29:21.561Z,624.00
2023-03-16T21:33:21.522Z,622.00
2023-03-16T21:37:21.388Z,636.00
2023-03-16T21:41:21.360Z,645.00
2023-03-16T21:45:21.353Z,642.00
2023-03-16T21:49:21.306Z,642.00
2023-03-16T21:53:21.279Z,646.00
2023-03-16T21:57:21.254Z,641.00
2023-03-16T22:01:21.219Z,643.00
2023-03-16T22:05:21.218Z,638.00
2023-03-16T22:09:21.145Z,640.00
2023-03-16T22:13:21.120Z,636.00
2023-03-16T22:17:21.090Z,641.00
2023-03-16T22:21:21.038Z,640.00
2023-03-16T22:25:20.971Z,636.00
2023-03-16T22:29:20.970Z,633.00
2023-03-16T22:33:21.079Z,633.00
2023-03-16T22:37:20.995Z,634.00
2023-03-16T22:41:21.029Z,631.00
2023-03-16T22:45:20.898Z,634.00
2023-03-16T22:49:20.994Z,629.00
2023-03-16T22:53:20.844Z,635.00
2023-03-16T22:57:20.781Z,626.00
2023-03-16T23:01:20.881Z,633.00
2023-03-16T23:05:20.739Z,630.00
2023-03-16T23:09:21.049Z,624.00
2023-03-16T23:13:20.674Z,622.00
2023-03-16T23:17:20.796Z,626.00
2023-03-16T23:21:20.949Z,621.00
2023-03-16T23:25:21.037Z,622.00
2023-03-16T23:29:21.218Z,619.00
2023-03-16T23:33:21.384Z,617.00
2023-03-16T23:37:21.597Z,616.00
2023-03-16T23:41:21.774Z,615.00
2023-03-16T23:45:21.919Z,613.00
2023-03-16T23:49:23.125Z,616.00
2023-03-16T23:53:22.095Z,621.00
2023-03-16T23:57:22.133Z,621.00
